Kenilworth, Utah
Current Conditions -  °F | °C
As of 8:53 AM on Thursday 29 Jan 2015 (Local Time) from KPUC Reporting Station
Clear Clear  
Wind Chill: 41°   Ceiling: Unl
Heat Index: 41°   Visibility: 10mi
Dew Point: 26°   Wind: 0mph
Humidity: 55%   Direction: NA
Pressure: 30.35"   Gusts: NA
Location:  39.69°N, 110.8°W
Report Text: KPUC 291553Z AUTO 00000KT 10SM CLR 05/M03 A3035 RMK AO2 SLP298 T00501033
Loading
Personal Weather Stations






























Interactive Weather Map New forecast layout! Learn more

10-Day Weather Forecast

Advertisements
Track Severe Weather on mobile